sensor_id;sensor_type;location;lat;lon;timestamp;temperature;humidity
7196;DHT22;3639;51.308;5.624;2023-05-07T00:02:02;14.70;99.90
7196;DHT22;3639;51.308;5.624;2023-05-07T00:04:29;14.70;99.90
7196;DHT22;3639;51.308;5.624;2023-05-07T00:07:01;14.80;99.90
7196;DHT22;3639;51.308;5.624;2023-05-07T00:09:26;14.80;99.90
7196;DHT22;3639;51.308;5.624;2023-05-07T00:11:52;14.80;99.90
7196;DHT22;3639;51.308;5.624;2023-05-07T00:14:17;14.80;99.90
7196;DHT22;3639;51.308;5.624;2023-05-07T00:16:43;14.80;99.90
7196;DHT22;3639;51.308;5.624;2023-05-07T00:19:09;14.70;99.90
7196;DHT22;3639;51.308;5.624;2023-05-07T00:21:34;14.70;99.90
7196;DHT22;3639;51.308;5.624;2023-05-07T00:24:00;14.70;99.90
7196;DHT22;3639;51.308;5.624;2023-05-07T00:26:26;14.70;99.90
7196;DHT22;3639;51.308;5.624;2023-05-07T00:28:51;14.70;99.90
7196;DHT22;3639;51.308;5.624;2023-05-07T00:31:17;14.60;99.90
7196;DHT22;3639;51.308;5.624;2023-05-07T00:33:42;14.50;99.90
7196;DHT22;3639;51.308;5.624;2023-05-07T00:36:08;14.50;99.90
7196;DHT22;3639;51.308;5.624;2023-05-07T00:38:33;14.40;99.90
7196;DHT22;3639;51.308;5.624;2023-05-07T00:40:59;14.30;99.90
7196;DHT22;3639;51.308;5.624;2023-05-07T00:43:25;14.30;99.90
7196;DHT22;3639;51.308;5.624;2023-05-07T00:45:51;14.20;99.90
7196;DHT22;3639;51.308;5.624;2023-05-07T00:48:17;14.20;99.90
7196;DHT22;3639;51.308;5.624;2023-05-07T00:50:43;14.10;99.90
7196;DHT22;3639;51.308;5.624;2023-05-07T00:53:08;14.10;99.90
7196;DHT22;3639;51.308;5.624;2023-05-07T00:55:35;14.10;99.90
7196;DHT22;3639;51.308;5.624;2023-05-07T00:58:01;14.10;99.90
7196;DHT22;3639;51.308;5.624;2023-05-07T01:00:26;14.10;99.90
7196;DHT22;3639;51.308;5.624;2023-05-07T01:02:52;14.10;99.90
7196;DHT22;3639;51.308;5.624;2023-05-07T01:05:19;14.10;99.90
7196;DHT22;3639;51.308;5.624;2023-05-07T01:07:46;14.10;99.90
7196;DHT22;3639;51.308;5.624;2023-05-07T01:10:12;14.10;99.90
7196;DHT22;3639;51.308;5.624;2023-05-07T01:12:40;14.20;99.90
7196;DHT22;3639;51.308;5.624;2023-05-07T01:15:08;14.20;99.90
7196;DHT22;3639;51.308;5.624;2023-05-07T01:17:40;14.20;99.90
7196;DHT22;3639;51.308;5.624;2023-05-07T01:20:06;14.30;99.90
7196;DHT22;3639;51.308;5.624;2023-05-07T01:22:37;14.20;99.90
7196;DHT22;3639;51.308;5.624;2023-05-07T01:25:03;14.20;99.90
7196;DHT22;3639;51.308;5.624;2023-05-07T01:27:29;14.20;99.90
7196;DHT22;3639;51.308;5.624;2023-05-07T01:29:55;14.20;99.90
7196;DHT22;3639;51.308;5.624;2023-05-07T01:32:43;14.20;99.90
7196;DHT22;3639;51.308;5.624;2023-05-07T01:35:12;14.20;99.90
7196;DHT22;3639;51.308;5.624;2023-05-07T01:37:39;14.20;99.90
7196;DHT22;3639;51.308;5.624;2023-05-07T01:40:06;14.20;99.90
7196;DHT22;3639;51.308;5.624;2023-05-07T01:42:33;14.20;99.90
7196;DHT22;3639;51.308;5.624;2023-05-07T01:44:58;14.20;99.90
7196;DHT22;3639;51.308;5.624;2023-05-07T01:47:25;14.30;99.90
7196;DHT22;3639;51.308;5.624;2023-05-07T01:49:51;14.30;99.90
7196;DHT22;3639;51.308;5.624;2023-05-07T01:52:16;14.30;99.90
7196;DHT22;3639;51.308;5.624;2023-05-07T01:54:42;14.20;99.90
7196;DHT22;3639;51.308;5.624;2023-05-07T01:57:08;14.10;99.90
7196;DHT22;3639;51.308;5.624;2023-05-07T01:59:33;14.10;99.90
7196;DHT22;3639;51.308;5.624;2023-05-07T02:01:59;14.10;99.90
7196;DHT22;3639;51.308;5.624;2023-05-07T02:04:25;14.10;99.90
7196;DHT22;3639;51.308;5.624;2023-05-07T02:06:51;14.00;99.90
7196;DHT22;3639;51.308;5.624;2023-05-07T02:09:18;14.00;99.90
7196;DHT22;3639;51.308;5.624;2023-05-07T02:11:44;14.00;99.90
7196;DHT22;3639;51.308;5.624;2023-05-07T02:14:09;14.00;99.90
7196;DHT22;3639;51.308;5.624;2023-05-07T02:16:35;13.90;99.90
7196;DHT22;3639;51.308;5.624;2023-05-07T02:19:01;13.90;99.90
7196;DHT22;3639;51.308;5.624;2023-05-07T02:21:26;13.90;99.90
7196;DHT22;3639;51.308;5.624;2023-05-07T02:23:52;13.90;99.90
7196;DHT22;3639;51.308;5.624;2023-05-07T02:26:18;13.90;99.90
7196;DHT22;3639;51.308;5.624;2023-05-07T02:28:43;13.90;99.90
7196;DHT22;3639;51.308;5.624;2023-05-07T02:31:09;13.90;99.90
7196;DHT22;3639;51.308;5.624;2023-05-07T02:33:35;13.90;99.90
7196;DHT22;3639;51.308;5.624;2023-05-07T02:36:11;13.90;99.90
7196;DHT22;3639;51.308;5.624;2023-05-07T02:38:37;13.90;99.90
7196;DHT22;3639;51.308;5.624;2023-05-07T02:41:02;14.00;99.90
7196;DHT22;3639;51.308;5.624;2023-05-07T02:43:28;14.00;99.90
7196;DHT22;3639;51.308;5.624;2023-05-07T02:46:20;13.90;99.90
7196;DHT22;3639;51.308;5.624;2023-05-07T02:48:46;14.00;99.90
7196;DHT22;3639;51.308;5.624;2023-05-07T02:51:11;13.90;99.90
7196;DHT22;3639;51.308;5.624;2023-05-07T02:53:37;13.90;99.90
7196;DHT22;3639;51.308;5.624;2023-05-07T02:56:03;14.00;99.90
7196;DHT22;3639;51.308;5.624;2023-05-07T02:58:28;14.00;99.90
7196;DHT22;3639;51.308;5.624;2023-05-07T03:00:54;14.00;99.90
7196;DHT22;3639;51.308;5.624;2023-05-07T03:03:22;14.00;99.90
7196;DHT22;3639;51.308;5.624;2023-05-07T03:05:48;13.90;99.90
7196;DHT22;3639;51.308;5.624;2023-05-07T03:08:13;13.90;99.90
7196;DHT22;3639;51.308;5.624;2023-05-07T03:10:39;14.00;99.90
7196;DHT22;3639;51.308;5.624;2023-05-07T03:13:05;14.00;99.90
7196;DHT22;3639;51.308;5.624;2023-05-07T03:15:30;13.90;99.90
7196;DHT22;3639;51.308;5.624;2023-05-07T03:17:56;13.90;99.90
7196;DHT22;3639;51.308;5.624;2023-05-07T03:20:22;13.90;99.90
7196;DHT22;3639;51.308;5.624;2023-05-07T03:22:47;13.90;99.90
7196;DHT22;3639;51.308;5.624;2023-05-07T03:25:13;13.90;99.90
7196;DHT22;3639;51.308;5.624;2023-05-07T03:27:40;13.90;99.90
7196;DHT22;3639;51.308;5.624;2023-05-07T03:30:07;13.90;99.90
7196;DHT22;3639;51.308;5.624;2023-05-07T03:32:34;13.80;99.90
7196;DHT22;3639;51.308;5.624;2023-05-07T03:35:00;13.80;99.90
7196;DHT22;3639;51.308;5.624;2023-05-07T03:37:26;13.80;99.90
7196;DHT22;3639;51.308;5.624;2023-05-07T03:39:52;13.80;99.90
7196;DHT22;3639;51.308;5.624;2023-05-07T03:42:17;13.80;99.90
7196;DHT22;3639;51.308;5.624;2023-05-07T03:44:43;13.80;99.90
7196;DHT22;3639;51.308;5.624;2023-05-07T03:47:08;13.70;99.90
7196;DHT22;3639;51.308;5.624;2023-05-07T03:49:35;13.70;99.90
7196;DHT22;3639;51.308;5.624;2023-05-07T03:52:01;13.70;99.90
7196;DHT22;3639;51.308;5.624;2023-05-07T03:54:26;13.70;99.90
7196;DHT22;3639;51.308;5.624;2023-05-07T03:56:52;13.70;99.90
7196;DHT22;3639;51.308;5.624;2023-05-07T03:59:17;13.60;99.90
7196;DHT22;3639;51.308;5.624;2023-05-07T04:01:43;13.70;99.90
7196;DHT22;3639;51.308;5.624;2023-05-07T04:04:09;13.60;99.90
7196;DHT22;3639;51.308;5.624;2023-05-07T04:06:34;13.70;99.90
7196;DHT22;3639;51.308;5.624;2023-05-07T04:09:00;13.70;99.90
7196;DHT22;3639;51.308;5.624;2023-05-07T04:11:26;13.70;99.90
7196;DHT22;3639;51.308;5.624;2023-05-07T04:13:51;13.70;99.90
7196;DHT22;3639;51.308;5.624;2023-05-07T04:16:17;13.70;99.90
7196;DHT22;3639;51.308;5.624;2023-05-07T04:18:42;13.70;99.90
7196;DHT22;3639;51.308;5.624;2023-05-07T04:21:19;13.70;99.90
7196;DHT22;3639;51.308;5.624;2023-05-07T04:23:46;13.80;99.90
7196;DHT22;3639;51.308;5.624;2023-05-07T04:26:11;13.80;99.90
7196;DHT22;3639;51.308;5.624;2023-05-07T04:28:38;13.80;99.90
7196;DHT22;3639;51.308;5.624;2023-05-07T04:31:03;13.80;99.90
7196;DHT22;3639;51.308;5.624;2023-05-07T04:33:29;13.80;99.90
7196;DHT22;3639;51.308;5.624;2023-05-07T04:35:55;13.80;99.90
7196;DHT22;3639;51.308;5.624;2023-05-07T04:38:21;13.90;99.90
7196;DHT22;3639;51.308;5.624;2023-05-07T04:40:46;13.90;99.90
7196;DHT22;3639;51.308;5.624;2023-05-07T04:43:12;13.90;99.90
7196;DHT22;3639;51.308;5.624;2023-05-07T04:45:38;13.90;99.90
7196;DHT22;3639;51.308;5.624;2023-05-07T04:48:07;14.00;99.90
7196;DHT22;3639;51.308;5.624;2023-05-07T04:50:32;14.00;99.90
7196;DHT22;3639;51.308;5.624;2023-05-07T04:52:58;14.00;99.90
7196;DHT22;3639;51.308;5.624;2023-05-07T04:55:24;14.10;99.90
7196;DHT22;3639;51.308;5.624;2023-05-07T04:57:49;14.10;99.90
7196;DHT22;3639;51.308;5.624;2023-05-07T05:00:16;14.20;99.90
7196;DHT22;3639;51.308;5.624;2023-05-07T05:02:45;14.20;99.90
7196;DHT22;3639;51.308;5.624;2023-05-07T05:05:10;14.30;99.90
7196;DHT22;3639;51.308;5.624;2023-05-07T05:07:36;14.20;99.90
7196;DHT22;3639;51.308;5.624;2023-05-07T05:10:02;14.30;99.90
7196;DHT22;3639;51.308;5.624;2023-05-07T05:12:29;14.30;99.90
7196;DHT22;3639;51.308;5.624;2023-05-07T05:14:55;14.40;99.90
7196;DHT22;3639;51.308;5.624;2023-05-07T05:17:21;14.30;99.90
7196;DHT22;3639;51.308;5.624;2023-05-07T05:19:46;14.40;99.90
7196;DHT22;3639;51.308;5.624;2023-05-07T05:22:12;14.40;99.90
7196;DHT22;3639;51.308;5.624;2023-05-07T05:24:37;14.40;99.90
7196;DHT22;3639;51.308;5.624;2023-05-07T05:27:03;14.40;99.90
7196;DHT22;3639;51.308;5.624;2023-05-07T05:29:29;14.50;99.90
7196;DHT22;3639;51.308;5.624;2023-05-07T05:31:56;14.50;99.90
7196;DHT22;3639;51.308;5.624;2023-05-07T05:34:22;14.50;99.90
7196;DHT22;3639;51.308;5.624;2023-05-07T05:36:48;14.50;99.90
7196;DHT22;3639;51.308;5.624;2023-05-07T05:39:13;14.50;99.90
7196;DHT22;3639;51.308;5.624;2023-05-07T05:41:39;14.50;99.90
7196;DHT22;3639;51.308;5.624;2023-05-07T05:44:05;14.60;99.90
7196;DHT22;3639;51.308;5.624;2023-05-07T05:46:31;14.60;99.90
7196;DHT22;3639;51.308;5.624;2023-05-07T05:48:57;14.70;99.90
7196;DHT22;3639;51.308;5.624;2023-05-07T05:51:22;14.70;99.90
7196;DHT22;3639;51.308;5.624;2023-05-07T05:53:48;14.80;99.90
7196;DHT22;3639;51.308;5.624;2023-05-07T05:56:15;14.80;99.90
7196;DHT22;3639;51.308;5.624;2023-05-07T05:58:40;14.80;99.90
7196;DHT22;3639;51.308;5.624;2023-05-07T06:01:06;14.90;99.90
7196;DHT22;3639;51.308;5.624;2023-05-07T06:03:31;14.90;99.90
7196;DHT22;3639;51.308;5.624;2023-05-07T06:06:00;14.90;99.90
7196;DHT22;3639;51.308;5.624;2023-05-07T06:08:28;15.10;99.90
7196;DHT22;3639;51.308;5.624;2023-05-07T06:10:54;15.10;99.90
7196;DHT22;3639;51.308;5.624;2023-05-07T06:13:19;15.20;99.90
7196;DHT22;3639;51.308;5.624;2023-05-07T06:15:45;15.30;99.90
7196;DHT22;3639;51.308;5.624;2023-05-07T06:18:11;15.40;99.90
7196;DHT22;3639;51.308;5.624;2023-05-07T06:20:36;15.50;99.90
7196;DHT22;3639;51.308;5.624;2023-05-07T06:23:02;15.60;99.90
7196;DHT22;3639;51.308;5.624;2023-05-07T06:25:27;15.60;99.90
7196;DHT22;3639;51.308;5.624;2023-05-07T06:27:53;15.70;99.90
7196;DHT22;3639;51.308;5.624;2023-05-07T06:30:19;15.90;99.90
7196;DHT22;3639;51.308;5.624;2023-05-07T06:32:44;15.90;99.90
7196;DHT22;3639;51.308;5.624;2023-05-07T06:35:10;16.00;99.90
7196;DHT22;3639;51.308;5.624;2023-05-07T06:37:36;16.20;99.90
7196;DHT22;3639;51.308;5.624;2023-05-07T06:40:05;16.30;99.90
7196;DHT22;3639;51.308;5.624;2023-05-07T06:42:31;16.30;99.90
7196;DHT22;3639;51.308;5.624;2023-05-07T06:44:56;16.30;99.90
7196;DHT22;3639;51.308;5.624;2023-05-07T06:47:22;16.40;99.90
7196;DHT22;3639;51.308;5.624;2023-05-07T06:49:47;16.50;99.90
7196;DHT22;3639;51.308;5.624;2023-05-07T06:52:13;16.60;99.90
7196;DHT22;3639;51.308;5.624;2023-05-07T06:54:38;16.70;99.90
7196;DHT22;3639;51.308;5.624;2023-05-07T06:57:04;16.80;99.90
7196;DHT22;3639;51.308;5.624;2023-05-07T06:59:29;17.00;99.90
7196;DHT22;3639;51.308;5.624;2023-05-07T07:01:55;17.00;99.90
7196;DHT22;3639;51.308;5.624;2023-05-07T07:04:21;17.10;99.90
7196;DHT22;3639;51.308;5.624;2023-05-07T07:06:48;17.00;99.90
7196;DHT22;3639;51.308;5.624;2023-05-07T07:09:13;17.10;99.90
7196;DHT22;3639;51.308;5.624;2023-05-07T07:11:39;17.20;99.90
7196;DHT22;3639;51.308;5.624;2023-05-07T07:14:05;17.20;99.90
7196;DHT22;3639;51.308;5.624;2023-05-07T07:16:30;17.30;99.90
7196;DHT22;3639;51.308;5.624;2023-05-07T07:18:56;17.40;99.90
7196;DHT22;3639;51.308;5.624;2023-05-07T07:21:22;17.50;99.90
7196;DHT22;3639;51.308;5.624;2023-05-07T07:23:47;17.50;99.90
7196;DHT22;3639;51.308;5.624;2023-05-07T07:26:13;17.50;99.90
7196;DHT22;3639;51.308;5.624;2023-05-07T07:28:45;17.60;99.90
7196;DHT22;3639;51.308;5.624;2023-05-07T07:31:11;17.70;99.90
7196;DHT22;3639;51.308;5.624;2023-05-07T07:33:36;17.70;99.90
7196;DHT22;3639;51.308;5.624;2023-05-07T07:36:02;17.60;99.90
7196;DHT22;3639;51.308;5.624;2023-05-07T07:38:28;17.50;99.90
7196;DHT22;3639;51.308;5.624;2023-05-07T07:40:53;17.40;99.90
7196;DHT22;3639;51.308;5.624;2023-05-07T07:43:19;17.30;99.90
7196;DHT22;3639;51.308;5.624;2023-05-07T07:45:45;17.10;99.90
7196;DHT22;3639;51.308;5.624;2023-05-07T07:48:11;17.10;99.90
7196;DHT22;3639;51.308;5.624;2023-05-07T07:50:37;17.20;99.90
7196;DHT22;3639;51.308;5.624;2023-05-07T07:53:03;17.10;99.90
7196;DHT22;3639;51.308;5.624;2023-05-07T07:55:28;17.20;99.90
7196;DHT22;3639;51.308;5.624;2023-05-07T07:57:54;17.40;99.90
7196;DHT22;3639;51.308;5.624;2023-05-07T08:00:20;17.50;99.90
7196;DHT22;3639;51.308;5.624;2023-05-07T08:02:45;17.60;99.90
7196;DHT22;3639;51.308;5.624;2023-05-07T08:05:11;17.70;99.90
7196;DHT22;3639;51.308;5.624;2023-05-07T08:07:36;17.70;99.90
7196;DHT22;3639;51.308;5.624;2023-05-07T08:10:02;17.80;99.90
7196;DHT22;3639;51.308;5.624;2023-05-07T08:12:28;18.00;99.90
7196;DHT22;3639;51.308;5.624;2023-05-07T08:14:54;18.00;99.90
7196;DHT22;3639;51.308;5.624;2023-05-07T08:17:20;18.00;99.90
7196;DHT22;3639;51.308;5.624;2023-05-07T08:19:47;18.20;99.90
7196;DHT22;3639;51.308;5.624;2023-05-07T08:22:13;18.40;99.90
7196;DHT22;3639;51.308;5.624;2023-05-07T08:24:40;18.60;99.90
7196;DHT22;3639;51.308;5.624;2023-05-07T08:27:05;18.80;99.90
7196;DHT22;3639;51.308;5.624;2023-05-07T08:29:31;18.90;99.90
7196;DHT22;3639;51.308;5.624;2023-05-07T08:31:56;19.20;99.90
7196;DHT22;3639;51.308;5.624;2023-05-07T08:34:22;19.20;99.90
7196;DHT22;3639;51.308;5.624;2023-05-07T08:36:48;19.20;99.90
7196;DHT22;3639;51.308;5.624;2023-05-07T08:39:15;19.20;99.90
7196;DHT22;3639;51.308;5.624;2023-05-07T08:41:44;19.30;99.90
7196;DHT22;3639;51.308;5.624;2023-05-07T08:44:12;19.30;99.90
7196;DHT22;3639;51.308;5.624;2023-05-07T08:46:39;19.40;99.90
7196;DHT22;3639;51.308;5.624;2023-05-07T08:49:07;19.50;99.90
7196;DHT22;3639;51.308;5.624;2023-05-07T08:51:33;19.60;99.90
7196;DHT22;3639;51.308;5.624;2023-05-07T08:53:59;19.60;99.90
7196;DHT22;3639;51.308;5.624;2023-05-07T08:56:26;19.60;99.90
7196;DHT22;3639;51.308;5.624;2023-05-07T08:58:52;19.40;99.90
7196;DHT22;3639;51.308;5.624;2023-05-07T09:01:21;19.30;99.90
7196;DHT22;3639;51.308;5.624;2023-05-07T09:03:47;19.20;99.90
7196;DHT22;3639;51.308;5.624;2023-05-07T09:06:13;19.20;99.90
7196;DHT22;3639;51.308;5.624;2023-05-07T09:08:38;19.40;99.90
7196;DHT22;3639;51.308;5.624;2023-05-07T09:11:04;19.70;99.90
7196;DHT22;3639;51.308;5.624;2023-05-07T09:13:29;20.00;99.90
7196;DHT22;3639;51.308;5.624;2023-05-07T09:15:56;20.00;99.90
7196;DHT22;3639;51.308;5.624;2023-05-07T09:18:24;19.80;99.90
7196;DHT22;3639;51.308;5.624;2023-05-07T09:20:49;19.90;99.90
7196;DHT22;3639;51.308;5.624;2023-05-07T09:23:16;20.10;99.90
7196;DHT22;3639;51.308;5.624;2023-05-07T09:25:41;20.30;99.90
7196;DHT22;3639;51.308;5.624;2023-05-07T09:28:07;20.50;99.90
7196;DHT22;3639;51.308;5.624;2023-05-07T09:30:33;20.90;99.90
7196;DHT22;3639;51.308;5.624;2023-05-07T09:33:01;21.40;99.90
7196;DHT22;3639;51.308;5.624;2023-05-07T09:35:28;21.60;99.90
7196;DHT22;3639;51.308;5.624;2023-05-07T09:37:55;21.70;99.90
7196;DHT22;3639;51.308;5.624;2023-05-07T09:40:25;21.90;99.90
7196;DHT22;3639;51.308;5.624;2023-05-07T09:42:51;22.10;99.90
7196;DHT22;3639;51.308;5.624;2023-05-07T09:45:26;22.10;99.90
7196;DHT22;3639;51.308;5.624;2023-05-07T09:47:55;22.10;99.90
7196;DHT22;3639;51.308;5.624;2023-05-07T09:50:29;22.10;99.90
7196;DHT22;3639;51.308;5.624;2023-05-07T09:52:56;22.30;99.90
7196;DHT22;3639;51.308;5.624;2023-05-07T09:55:22;22.30;99.90
7196;DHT22;3639;51.308;5.624;2023-05-07T09:57:51;22.10;99.90
7196;DHT22;3639;51.308;5.624;2023-05-07T10:00:19;22.10;99.90
7196;DHT22;3639;51.308;5.624;2023-05-07T10:02:47;21.90;99.90
7196;DHT22;3639;51.308;5.624;2023-05-07T10:05:15;21.90;99.90
7196;DHT22;3639;51.308;5.624;2023-05-07T10:07:41;22.10;99.90
7196;DHT22;3639;51.308;5.624;2023-05-07T10:10:07;21.90;99.90
7196;DHT22;3639;51.308;5.624;2023-05-07T10:12:33;21.90;99.90
7196;DHT22;3639;51.308;5.624;2023-05-07T10:15:08;22.10;99.90
7196;DHT22;3639;51.308;5.624;2023-05-07T10:17:39;22.30;99.90
7196;DHT22;3639;51.308;5.624;2023-05-07T10:20:05;22.50;99.90
7196;DHT22;3639;51.308;5.624;2023-05-07T10:22:51;22.60;99.90
7196;DHT22;3639;51.308;5.624;2023-05-07T10:25:31;22.60;99.90
7196;DHT22;3639;51.308;5.624;2023-05-07T10:28:04;22.80;99.90
7196;DHT22;3639;51.308;5.624;2023-05-07T10:30:49;23.10;99.90
7196;DHT22;3639;51.308;5.624;2023-05-07T10:33:21;23.10;99.90
7196;DHT22;3639;51.308;5.624;2023-05-07T10:35:49;23.10;99.90
7196;DHT22;3639;51.308;5.624;2023-05-07T10:38:14;23.10;99.90
7196;DHT22;3639;51.308;5.624;2023-05-07T10:40:40;22.90;99.90
7196;DHT22;3639;51.308;5.624;2023-05-07T10:43:06;22.80;99.90
7196;DHT22;3639;51.308;5.624;2023-05-07T10:45:32;22.80;99.90
7196;DHT22;3639;51.308;5.624;2023-05-07T10:48:06;23.00;99.90
7196;DHT22;3639;51.308;5.624;2023-05-07T10:50:32;23.20;99.90
7196;DHT22;3639;51.308;5.624;2023-05-07T10:53:24;23.30;99.90
7196;DHT22;3639;51.308;5.624;2023-05-07T10:56:31;23.50;99.90
7196;DHT22;3639;51.308;5.624;2023-05-07T11:01:50;23.60;99.90
7196;DHT22;3639;51.308;5.624;2023-05-07T11:04:19;23.40;99.90
7196;DHT22;3639;51.308;5.624;2023-05-07T11:12:16;23.70;99.90
7196;DHT22;3639;51.308;5.624;2023-05-07T11:17:11;23.90;99.90
7196;DHT22;3639;51.308;5.624;2023-05-07T11:24:56;24.20;99.90
7196;DHT22;3639;51.308;5.624;2023-05-07T11:27:29;24.00;99.90
7196;DHT22;3639;51.308;5.624;2023-05-07T11:29:55;23.80;99.90
7196;DHT22;3639;51.308;5.624;2023-05-07T11:32:28;23.70;99.90
7196;DHT22;3639;51.308;5.624;2023-05-07T11:34:56;23.80;99.90
7196;DHT22;3639;51.308;5.624;2023-05-07T11:37:23;23.60;99.90
7196;DHT22;3639;51.308;5.624;2023-05-07T11:39:49;23.60;99.90
7196;DHT22;3639;51.308;5.624;2023-05-07T11:42:30;23.50;99.90
7196;DHT22;3639;51.308;5.624;2023-05-07T11:44:56;23.50;99.90
7196;DHT22;3639;51.308;5.624;2023-05-07T11:47:22;23.50;99.90
7196;DHT22;3639;51.308;5.624;2023-05-07T11:49:48;23.20;99.90
7196;DHT22;3639;51.308;5.624;2023-05-07T11:52:15;22.70;99.90
7196;DHT22;3639;51.308;5.624;2023-05-07T11:54:41;22.70;99.90
7196;DHT22;3639;51.308;5.624;2023-05-07T11:57:06;22.80;99.90
7196;DHT22;3639;51.308;5.624;2023-05-07T11:59:42;22.70;99.90
7196;DHT22;3639;51.308;5.624;2023-05-07T12:02:09;22.60;99.90
7196;DHT22;3639;51.308;5.624;2023-05-07T12:04:35;22.40;99.90
7196;DHT22;3639;51.308;5.624;2023-05-07T12:07:01;22.30;99.90
7196;DHT22;3639;51.308;5.624;2023-05-07T12:09:27;22.30;99.90
7196;DHT22;3639;51.308;5.624;2023-05-07T12:11:53;22.20;99.90
7196;DHT22;3639;51.308;5.624;2023-05-07T12:14:19;22.20;99.90
7196;DHT22;3639;51.308;5.624;2023-05-07T12:16:45;22.00;99.90
7196;DHT22;3639;51.308;5.624;2023-05-07T12:19:11;21.70;99.90
7196;DHT22;3639;51.308;5.624;2023-05-07T12:21:40;21.30;99.90
7196;DHT22;3639;51.308;5.624;2023-05-07T12:24:07;20.80;99.90
7196;DHT22;3639;51.308;5.624;2023-05-07T12:26:37;20.40;99.90
7196;DHT22;3639;51.308;5.624;2023-05-07T12:29:03;20.10;99.90
7196;DHT22;3639;51.308;5.624;2023-05-07T12:31:28;19.80;99.90
7196;DHT22;3639;51.308;5.624;2023-05-07T12:33:54;19.50;99.90
7196;DHT22;3639;51.308;5.624;2023-05-07T12:36:20;18.90;99.90
7196;DHT22;3639;51.308;5.624;2023-05-07T12:38:49;18.10;99.90
7196;DHT22;3639;51.308;5.624;2023-05-07T12:41:15;17.40;99.90
7196;DHT22;3639;51.308;5.624;2023-05-07T12:43:44;17.10;99.90
7196;DHT22;3639;51.308;5.624;2023-05-07T12:46:11;16.80;99.90
7196;DHT22;3639;51.308;5.624;2023-05-07T12:48:43;16.70;99.90
7196;DHT22;3639;51.308;5.624;2023-05-07T12:51:10;16.70;99.90
7196;DHT22;3639;51.308;5.624;2023-05-07T12:53:40;16.70;99.90
7196;DHT22;3639;51.308;5.624;2023-05-07T12:56:07;16.70;99.90
7196;DHT22;3639;51.308;5.624;2023-05-07T12:58:34;16.70;99.90
7196;DHT22;3639;51.308;5.624;2023-05-07T13:01:05;16.90;99.90
7196;DHT22;3639;51.308;5.624;2023-05-07T13:03:36;16.90;99.90
7196;DHT22;3639;51.308;5.624;2023-05-07T13:06:07;16.90;99.90
7196;DHT22;3639;51.308;5.624;2023-05-07T13:08:37;17.00;99.90
7196;DHT22;3639;51.308;5.624;2023-05-07T13:11:04;17.20;99.90
7196;DHT22;3639;51.308;5.624;2023-05-07T13:13:34;17.30;99.90
7196;DHT22;3639;51.308;5.624;2023-05-07T13:16:01;17.40;99.90
7196;DHT22;3639;51.308;5.624;2023-05-07T13:18:29;17.40;99.90
7196;DHT22;3639;51.308;5.624;2023-05-07T13:20:55;17.50;99.90
7196;DHT22;3639;51.308;5.624;2023-05-07T13:23:20;17.60;99.90
7196;DHT22;3639;51.308;5.624;2023-05-07T13:25:47;17.70;99.90
7196;DHT22;3639;51.308;5.624;2023-05-07T13:28:12;17.60;99.90
7196;DHT22;3639;51.308;5.624;2023-05-07T13:30:38;17.60;99.90
7196;DHT22;3639;51.308;5.624;2023-05-07T13:33:04;17.60;99.90
7196;DHT22;3639;51.308;5.624;2023-05-07T13:35:30;17.60;99.90
7196;DHT22;3639;51.308;5.624;2023-05-07T13:37:55;17.60;99.90
7196;DHT22;3639;51.308;5.624;2023-05-07T13:40:22;17.50;99.90
7196;DHT22;3639;51.308;5.624;2023-05-07T13:42:48;17.60;99.90
7196;DHT22;3639;51.308;5.624;2023-05-07T13:45:14;17.70;99.90
7196;DHT22;3639;51.308;5.624;2023-05-07T13:47:41;17.80;99.90
7196;DHT22;3639;51.308;5.624;2023-05-07T13:50:08;18.00;99.90
7196;DHT22;3639;51.308;5.624;2023-05-07T13:52:34;18.00;99.90
7196;DHT22;3639;51.308;5.624;2023-05-07T13:54:59;18.10;99.90
7196;DHT22;3639;51.308;5.624;2023-05-07T13:57:25;18.30;99.90
7196;DHT22;3639;51.308;5.624;2023-05-07T13:59:50;18.30;99.90
7196;DHT22;3639;51.308;5.624;2023-05-07T14:02:16;18.60;99.90
7196;DHT22;3639;51.308;5.624;2023-05-07T14:04:42;18.80;99.90
7196;DHT22;3639;51.308;5.624;2023-05-07T14:07:07;18.90;99.90
7196;DHT22;3639;51.308;5.624;2023-05-07T14:09:33;19.00;99.90
7196;DHT22;3639;51.308;5.624;2023-05-07T14:11:58;19.20;99.90
7196;DHT22;3639;51.308;5.624;2023-05-07T14:14:24;19.20;99.90
7196;DHT22;3639;51.308;5.624;2023-05-07T14:16:50;19.20;99.90
7196;DHT22;3639;51.308;5.624;2023-05-07T14:19:15;19.50;99.90
7196;DHT22;3639;51.308;5.624;2023-05-07T14:21:41;19.50;99.90
7196;DHT22;3639;51.308;5.624;2023-05-07T14:24:07;19.60;99.90
7196;DHT22;3639;51.308;5.624;2023-05-07T14:26:34;19.70;99.90
7196;DHT22;3639;51.308;5.624;2023-05-07T14:29:00;19.80;99.90
7196;DHT22;3639;51.308;5.624;2023-05-07T14:31:25;19.90;99.90
7196;DHT22;3639;51.308;5.624;2023-05-07T14:33:51;20.00;99.90
7196;DHT22;3639;51.308;5.624;2023-05-07T14:36:17;19.90;99.90
7196;DHT22;3639;51.308;5.624;2023-05-07T14:38:45;19.90;99.90
7196;DHT22;3639;51.308;5.624;2023-05-07T14:41:11;19.80;99.90
7196;DHT22;3639;51.308;5.624;2023-05-07T14:43:37;19.70;99.90
7196;DHT22;3639;51.308;5.624;2023-05-07T14:46:02;19.80;99.90
7196;DHT22;3639;51.308;5.624;2023-05-07T14:48:28;19.80;99.90
7196;DHT22;3639;51.308;5.624;2023-05-07T14:50:54;19.60;99.90
7196;DHT22;3639;51.308;5.624;2023-05-07T14:53:19;19.50;99.90
7196;DHT22;3639;51.308;5.624;2023-05-07T14:55:46;19.40;99.90
7196;DHT22;3639;51.308;5.624;2023-05-07T14:58:12;19.50;99.90
7196;DHT22;3639;51.308;5.624;2023-05-07T15:00:37;19.60;99.90
7196;DHT22;3639;51.308;5.624;2023-05-07T15:03:08;19.60;99.90
7196;DHT22;3639;51.308;5.624;2023-05-07T15:05:34;19.60;99.90
7196;DHT22;3639;51.308;5.624;2023-05-07T15:08:00;19.60;99.90
7196;DHT22;3639;51.308;5.624;2023-05-07T15:10:26;19.60;99.90
7196;DHT22;3639;51.308;5.624;2023-05-07T15:12:52;19.50;99.90
7196;DHT22;3639;51.308;5.624;2023-05-07T15:15:17;19.50;99.90
7196;DHT22;3639;51.308;5.624;2023-05-07T15:17:43;19.50;99.90
7196;DHT22;3639;51.308;5.624;2023-05-07T15:20:08;19.40;99.90
7196;DHT22;3639;51.308;5.624;2023-05-07T15:22:35;19.30;99.90
7196;DHT22;3639;51.308;5.624;2023-05-07T15:25:03;19.40;99.90
7196;DHT22;3639;51.308;5.624;2023-05-07T15:27:29;19.30;99.90
7196;DHT22;3639;51.308;5.624;2023-05-07T15:29:56;19.40;99.90
7196;DHT22;3639;51.308;5.624;2023-05-07T15:32:21;19.40;99.90
7196;DHT22;3639;51.308;5.624;2023-05-07T15:34:47;19.50;99.90
7196;DHT22;3639;51.308;5.624;2023-05-07T15:37:12;19.50;99.90
7196;DHT22;3639;51.308;5.624;2023-05-07T15:39:38;19.60;99.90
7196;DHT22;3639;51.308;5.624;2023-05-07T15:42:04;19.50;99.90
7196;DHT22;3639;51.308;5.624;2023-05-07T15:44:30;19.60;99.90
7196;DHT22;3639;51.308;5.624;2023-05-07T15:46:58;19.50;99.90
7196;DHT22;3639;51.308;5.624;2023-05-07T15:49:24;19.60;99.90
7196;DHT22;3639;51.308;5.624;2023-05-07T15:51:50;19.70;99.90
7196;DHT22;3639;51.308;5.624;2023-05-07T15:54:16;19.70;99.90
7196;DHT22;3639;51.308;5.624;2023-05-07T15:56:45;19.70;99.90
7196;DHT22;3639;51.308;5.624;2023-05-07T15:59:11;19.60;99.90
7196;DHT22;3639;51.308;5.624;2023-05-07T16:01:37;19.60;99.90
7196;DHT22;3639;51.308;5.624;2023-05-07T16:04:03;19.60;99.90
7196;DHT22;3639;51.308;5.624;2023-05-07T16:06:29;19.70;99.90
7196;DHT22;3639;51.308;5.624;2023-05-07T16:08:55;19.70;99.90
7196;DHT22;3639;51.308;5.624;2023-05-07T16:11:21;19.80;99.90
7196;DHT22;3639;51.308;5.624;2023-05-07T16:13:47;19.80;99.90
7196;DHT22;3639;51.308;5.624;2023-05-07T16:16:12;19.80;99.90